createdAt,value
2022-12-18T00:03:19.272Z,-4.07
2022-12-18T00:08:21.237Z,-4.05
2022-12-18T00:13:22.707Z,-4.12
2022-12-18T00:18:24.117Z,-4.18
2022-12-18T00:23:25.528Z,-4.26
2022-12-18T00:28:26.993Z,-4.28
2022-12-18T00:33:28.968Z,-4.34
2022-12-18T00:38:30.394Z,-4.39
2022-12-18T00:43:35.656Z,-4.42
2022-12-18T00:48:37.306Z,-4.44
2022-12-18T00:53:40.118Z,-4.42
2022-12-18T00:58:41.932Z,-4.50
2022-12-18T01:03:43.533Z,-4.59
2022-12-18T01:08:45.662Z,-4.66
2022-12-18T01:13:47.882Z,-4.80
2022-12-18T01:18:53.739Z,-5.21
2022-12-18T01:23:56.415Z,-5.46
2022-12-18T01:28:59.062Z,-5.34
2022-12-18T01:34:06.454Z,-5.20
2022-12-18T01:39:15.114Z,-5.13
2022-12-18T01:44:55.088Z,-5.06
2022-12-18T01:49:59.386Z,-4.99
2022-12-18T01:55:02.508Z,-4.89
2022-12-18T02:00:30.898Z,-4.88
2022-12-18T02:05:58.274Z,-4.94
2022-12-18T02:11:26.907Z,-5.05
2022-12-18T02:16:48.586Z,-5.09
2022-12-18T02:22:08.434Z,-5.09
2022-12-18T02:27:11.921Z,-5.06
2022-12-18T02:32:18.717Z,-5.01
2022-12-18T02:37:21.846Z,-5.01
2022-12-18T02:42:25.282Z,-5.07
2022-12-18T02:47:33.489Z,-5.02
2022-12-18T02:52:55.507Z,-4.91
2022-12-18T02:58:01.481Z,-4.84
2022-12-18T03:03:20.450Z,-4.87
2022-12-18T03:08:26.091Z,-4.88
2022-12-18T03:13:37.145Z,-4.97
2022-12-18T03:18:53.210Z,-5.08
2022-12-18T03:23:56.479Z,-5.21
2022-12-18T03:29:09.014Z,-5.33
2022-12-18T03:34:20.778Z,-5.43
2022-12-18T03:39:22.958Z,-5.40
2022-12-18T03:44:40.798Z,-5.33
2022-12-18T03:49:58.523Z,-5.26
2022-12-18T03:55:04.169Z,-5.22
2022-12-18T04:00:15.335Z,-5.18
2022-12-18T04:05:30.822Z,-5.15
2022-12-18T04:10:33.038Z,-5.16
2022-12-18T04:15:39.528Z,-5.13
2022-12-18T04:20:46.227Z,-5.09
2022-12-18T04:25:48.278Z,-5.03
2022-12-18T04:30:56.114Z,-4.96
2022-12-18T04:35:57.817Z,-4.99
2022-12-18T04:41:00.098Z,-5.09
2022-12-18T04:46:07.198Z,-5.17
2022-12-18T04:51:08.779Z,-5.15
2022-12-18T04:56:13.957Z,-5.18
2022-12-18T05:01:17.364Z,-5.27
2022-12-18T05:06:19.093Z,-5.36
2022-12-18T05:11:20.495Z,-5.37
2022-12-18T05:16:21.921Z,-5.34
2022-12-18T05:21:23.387Z,-5.34
2022-12-18T05:26:24.824Z,-5.31
2022-12-18T05:31:26.251Z,-5.36
2022-12-18T05:36:27.756Z,-5.38
2022-12-18T05:41:29.619Z,-5.40
2022-12-18T05:46:31.086Z,-5.36
2022-12-18T05:51:32.538Z,-5.36
2022-12-18T05:56:33.960Z,-5.41
2022-12-18T06:01:35.663Z,-5.47
2022-12-18T06:06:37.649Z,-5.49
2022-12-18T06:11:39.967Z,-5.47
2022-12-18T06:16:41.390Z,-5.46
2022-12-18T06:21:42.928Z,-5.52
2022-12-18T06:26:44.358Z,-5.56
2022-12-18T06:31:45.793Z,-5.52
2022-12-18T06:36:47.314Z,-5.57
2022-12-18T06:41:48.823Z,-5.58
2022-12-18T06:46:50.339Z,-5.58
2022-12-18T06:51:51.768Z,-5.65
2022-12-18T06:56:53.150Z,-5.60
2022-12-18T07:01:57.456Z,-5.50
2022-12-18T07:06:58.930Z,-5.49
2022-12-18T07:12:00.382Z,-5.46
2022-12-18T07:17:01.856Z,-5.41
2022-12-18T07:22:03.307Z,-5.36
2022-12-18T07:27:06.044Z,-5.41
2022-12-18T07:32:09.592Z,-5.51
2022-12-18T07:37:11.311Z,-5.50
2022-12-18T07:42:31.463Z,-5.51
2022-12-18T07:47:36.034Z,-5.49
2022-12-18T07:52:37.470Z,-5.49
2022-12-18T07:57:50.518Z,-5.40
2022-12-18T08:02:52.886Z,-5.30
2022-12-18T08:07:54.639Z,-5.25
2022-12-18T08:13:00.022Z,-5.16
2022-12-18T08:18:04.491Z,-5.11
2022-12-18T08:23:05.918Z,-5.05
2022-12-18T08:28:07.319Z,-5.00
2022-12-18T08:33:08.777Z,-4.89
2022-12-18T08:38:10.226Z,-4.82
2022-12-18T08:43:30.758Z,-4.82
2022-12-18T08:48:32.222Z,-4.81
2022-12-18T08:53:36.552Z,-4.72
2022-12-18T08:58:38.190Z,-4.61
2022-12-18T09:03:41.287Z,-4.48
2022-12-18T09:08:44.570Z,-4.31
2022-12-18T09:13:46.143Z,-4.18
2022-12-18T09:18:48.307Z,-4.09
2022-12-18T09:23:54.333Z,-3.92
2022-12-18T09:28:56.786Z,-3.79
2022-12-18T09:33:58.183Z,-3.70
2022-12-18T09:39:02.611Z,-3.55
2022-12-18T09:44:11.946Z,-3.38
2022-12-18T09:49:17.134Z,-3.23
2022-12-18T09:54:39.250Z,-3.12
2022-12-18T09:59:47.279Z,-3.06
2022-12-18T10:05:18.791Z,-3.00
2022-12-18T10:10:38.760Z,-3.04
2022-12-18T10:15:55.571Z,-3.04
2022-12-18T10:21:04.628Z,-2.96
2022-12-18T10:26:11.587Z,-2.88
2022-12-18T10:31:20.643Z,-2.84
2022-12-18T10:36:23.760Z,-2.83
2022-12-18T10:41:27.843Z,-2.80
2022-12-18T10:46:31.030Z,-2.74
2022-12-18T10:51:38.467Z,-2.68
2022-12-18T10:56:40.386Z,-2.62
2022-12-18T11:01:58.528Z,-2.53
2022-12-18T11:07:01.374Z,-2.44
2022-12-18T11:12:07.074Z,-2.39
2022-12-18T11:17:27.321Z,-2.29
2022-12-18T11:22:34.112Z,-2.26
2022-12-18T11:27:35.545Z,-2.23
2022-12-18T11:32:39.171Z,-2.17
2022-12-18T11:37:44.515Z,-2.08
2022-12-18T11:42:52.811Z,-2.03
2022-12-18T11:48:15.847Z,-1.97
2022-12-18T11:53:17.930Z,-1.89
2022-12-18T11:58:50.420Z,-1.79
2022-12-18T12:04:29.682Z,-1.73
2022-12-18T12:09:45.335Z,-1.64
2022-12-18T12:15:22.516Z,-1.58
2022-12-18T12:21:08.559Z,-1.51
2022-12-18T12:26:17.343Z,-1.46
2022-12-18T12:31:26.609Z,-1.41
2022-12-18T12:36:40.159Z,-1.36
2022-12-18T12:42:03.505Z,-1.32
2022-12-18T12:47:17.299Z,-1.28
2022-12-18T12:52:32.123Z,-1.26
2022-12-18T12:57:44.358Z,-1.24
2022-12-18T13:03:18.583Z,-1.22
2022-12-18T13:08:26.526Z,-1.20
2022-12-18T13:13:50.549Z,-1.28
2022-12-18T13:18:55.302Z,-1.38
2022-12-18T13:23:58.495Z,-1.46
2022-12-18T13:29:00.596Z,-1.50
2022-12-18T13:34:28.070Z,-1.55
2022-12-18T13:39:35.769Z,-1.56
2022-12-18T13:44:42.300Z,-1.57
2022-12-18T13:49:44.952Z,-1.50
2022-12-18T13:54:53.475Z,-1.48
2022-12-18T13:59:58.441Z,-1.54
2022-12-18T14:05:05.593Z,-1.65
2022-12-18T14:15:47.672Z,-1.88
2022-12-18T14:20:53.391Z,-1.97
2022-12-18T14:25:57.762Z,-2.11
2022-12-18T14:31:02.721Z,-2.23
2022-12-18T14:36:06.328Z,-2.35
2022-12-18T14:41:14.514Z,-2.47
2022-12-18T14:46:31.165Z,-2.56
2022-12-18T14:51:34.996Z,-2.66
2022-12-18T14:56:44.360Z,-2.75
2022-12-18T15:02:00.863Z,-2.83
2022-12-18T15:07:12.738Z,-2.93
2022-12-18T15:12:43.522Z,-3.05
2022-12-18T15:17:45.086Z,-3.11
2022-12-18T15:22:48.503Z,-3.14
2022-12-18T15:27:50.295Z,-3.14
2022-12-18T15:32:53.191Z,-3.19
2022-12-18T15:37:54.683Z,-3.25
2022-12-18T15:43:14.955Z,-3.28
2022-12-18T15:48:23.141Z,-3.31
2022-12-18T15:53:27.244Z,-3.32
2022-12-18T15:58:28.798Z,-3.32
2022-12-18T16:03:30.415Z,-3.32
2022-12-18T16:08:32.637Z,-3.30
2022-12-18T16:13:34.083Z,-3.35
2022-12-18T16:18:36.163Z,-3.38
2022-12-18T16:23:37.718Z,-3.38
2022-12-18T16:28:43.828Z,-3.35
2022-12-18T16:33:49.697Z,-3.35
2022-12-18T16:38:51.179Z,-3.35
2022-12-18T16:43:55.030Z,-3.33
2022-12-18T16:48:59.340Z,-3.35
2022-12-18T16:54:02.989Z,-3.29
2022-12-18T16:59:09.890Z,-3.35
2022-12-18T17:04:11.520Z,-3.37
2022-12-18T17:09:15.831Z,-3.37
2022-12-18T17:14:20.307Z,-3.38
2022-12-18T17:19:24.823Z,-3.42
2022-12-18T17:24:30.078Z,-3.42
2022-12-18T17:29:34.782Z,-3.40
2022-12-18T17:34:36.991Z,-3.38
2022-12-18T17:39:39.139Z,-3.34
2022-12-18T17:44:40.627Z,-3.31
2022-12-18T17:49:42.397Z,-3.32
2022-12-18T17:54:44.070Z,-3.29
2022-12-18T17:59:45.486Z,-3.27
2022-12-18T18:04:46.903Z,-3.27
2022-12-18T18:09:48.321Z,-3.20
2022-12-18T18:14:49.730Z,-3.17
2022-12-18T18:19:51.550Z,-3.12
2022-12-18T18:24:53.091Z,-3.11
2022-12-18T18:29:54.670Z,-3.06
2022-12-18T18:34:56.070Z,-3.00
2022-12-18T18:39:57.534Z,-2.94
2022-12-18T18:45:02.084Z,-2.86
2022-12-18T18:50:03.840Z,-2.85
2022-12-18T18:55:16.262Z,-2.88
2022-12-18T19:00:25.611Z,-2.92
2022-12-18T19:05:31.086Z,-2.92
2022-12-18T19:10:32.571Z,-2.93
2022-12-18T19:15:34.474Z,-2.90
2022-12-18T19:20:36.407Z,-2.86
2022-12-18T19:25:42.137Z,-2.82
2022-12-18T19:30:45.017Z,-2.80
2022-12-18T19:35:46.513Z,-2.72
2022-12-18T19:40:48.534Z,-2.69
2022-12-18T19:45:54.977Z,-2.66
2022-12-18T19:50:56.507Z,-2.62
2022-12-18T19:55:58.542Z,-2.59
2022-12-18T20:01:00.075Z,-2.53
2022-12-18T20:06:46.423Z,-2.46
2022-12-18T20:11:48.132Z,-2.45
2022-12-18T20:16:49.723Z,-2.38
2022-12-18T20:21:51.727Z,-2.33
2022-12-18T20:26:53.999Z,-2.28
2022-12-18T20:31:55.462Z,-2.22
2022-12-18T20:36:56.981Z,-2.24
2022-12-18T20:41:58.792Z,-2.24
2022-12-18T20:47:07.730Z,-2.21
2022-12-18T20:52:10.191Z,-2.21
2022-12-18T20:57:11.709Z,-2.19
2022-12-18T21:02:14.059Z,-2.17
2022-12-18T21:07:16.028Z,-2.19
2022-12-18T21:12:45.278Z,-2.19
2022-12-18T21:18:02.467Z,-2.15
2022-12-18T21:23:16.049Z,-2.08
2022-12-18T21:28:18.432Z,-2.06
2022-12-18T21:33:20.184Z,-2.01
2022-12-18T21:38:21.663Z,-1.92
2022-12-18T21:43:41.946Z,-1.86
2022-12-18T21:48:43.840Z,-1.83
2022-12-18T21:53:45.321Z,-1.78
2022-12-18T21:58:57.039Z,-1.78
2022-12-18T22:03:58.846Z,-1.77
2022-12-18T22:09:00.447Z,-1.75
2022-12-18T22:14:01.945Z,-1.77
2022-12-18T22:19:04.823Z,-1.80
2022-12-18T22:24:29.215Z,-1.79
2022-12-18T22:29:49.082Z,-1.80
2022-12-18T22:34:50.497Z,-1.79
2022-12-18T22:39:52.012Z,-1.77
2022-12-18T22:44:53.953Z,-1.73
2022-12-18T22:49:55.463Z,-1.73
2022-12-18T22:54:56.859Z,-1.71
2022-12-18T22:59:58.265Z,-1.69
2022-12-18T23:05:00.422Z,-1.65
2022-12-18T23:10:02.411Z,-1.61
2022-12-18T23:15:05.140Z,-1.61
2022-12-18T23:20:07.388Z,-1.56
2022-12-18T23:25:09.862Z,-1.51
2022-12-18T23:30:12.143Z,-1.47
2022-12-18T23:35:15.567Z,-1.48
2022-12-18T23:40:17.463Z,-1.47
2022-12-18T23:45:18.895Z,-1.46
2022-12-18T23:50:24.521Z,-1.46
2022-12-18T23:55:31.239Z,-1.46
